Terminal Aerodrome Forecast
Issued by NWS Louisville, KY

Home | Current Version | Previous Version | Text Only | Print | Product List | Glossary On
Versions: 1 2 3 4 5 6 7 8 9 10 11 12 13 14
000
FTUS43 KLMK 121100
TAFSDF
TAF
KSDF 121120Z 1212/1318 02010KT P6SM OVC025
     FM121400 03008KT P6SM BKN035
     FM130100 01005KT P6SM OVC035=

USA.gov is the U.S. government's official web portal to all federal, state and local government web resources and services.